Time;durP1;ratioP1;P1;durP2;ratioP2;P2;SDS_P1;SDS_P2;PMS_P1;PMS_P2;Temp;Humidity;BMP_temperature;BMP_pressure;BME280_temperature;BME280_humidity;BME280_pressure;Samples;Min_cycle;Max_cycle;Signal;HPM_P1;HPM_P2
2022/09/15 00:00:52;;;;;;;;;;;13.90;99.90;;;;;;5056313;28;19966;-79
2022/09/15 00:03:19;;;;;;;;;;;13.80;99.90;;;;;;5055752;28;20010;-79
2022/09/15 00:05:44;;;;;;;;;;;13.80;99.90;;;;;;5055885;28;19927;-79
2022/09/15 00:08:11;;;;;;;;;;;13.80;99.90;;;;;;5043980;28;19921;-79
2022/09/15 00:10:51;;;;;;;;;;;14.00;99.90;;;;;;5053656;28;19920;-79
2022/09/15 00:13:17;;;;;;;;;;;14.00;99.90;;;;;;5044023;28;19928;-79
2022/09/15 00:15:43;;;;;;;;;;;14.10;99.90;;;;;;5037070;28;20036;-78
2022/09/15 00:18:09;;;;;;;;;;;14.10;99.90;;;;;;5045753;28;20394;-79
2022/09/15 00:20:38;;;;;;;;;;;13.90;99.90;;;;;;5070154;28;19924;-79
2022/09/15 00:23:03;;;;;;;;;;;14.00;99.90;;;;;;5044022;28;19916;-79
2022/09/15 00:25:29;;;;;;;;;;;14.00;99.90;;;;;;5054999;28;19920;-79
2022/09/15 00:27:55;;;;;;;;;;;14.00;99.90;;;;;;5042010;28;19974;-80
2022/09/15 00:30:21;;;;;;;;;;;14.20;99.90;;;;;;5055294;28;19920;-79
2022/09/15 00:32:46;;;;;;;;;;;14.20;99.90;;;;;;5055254;28;19924;-78
2022/09/15 00:35:12;;;;;;;;;;;14.10;99.90;;;;;;5045299;28;19917;-79
2022/09/15 00:37:37;;;;;;;;;;;14.00;99.90;;;;;;5051530;28;20379;-78
2022/09/15 00:40:03;;;;;;;;;;;14.00;99.90;;;;;;5054972;28;19939;-80
2022/09/15 00:42:29;;;;;;;;;;;14.00;99.90;;;;;;5055952;28;20007;-79
2022/09/15 00:44:56;;;;;;;;;;;14.00;99.90;;;;;;5055395;28;20394;-78
2022/09/15 00:47:24;;;;;;;;;;;14.20;99.90;;;;;;5055267;28;20023;-79
2022/09/15 00:49:53;;;;;;;;;;;14.20;99.90;;;;;;5055052;28;19921;-79
2022/09/15 00:52:22;;;;;;;;;;;14.00;99.90;;;;;;5043744;28;19921;-79
2022/09/15 00:54:51;;;;;;;;;;;14.00;99.90;;;;;;5038861;28;19924;-79
2022/09/15 00:57:19;;;;;;;;;;;14.00;99.90;;;;;;5038807;28;20010;-79
2022/09/15 00:59:47;;;;;;;;;;;14.10;99.90;;;;;;5038375;28;19940;-79
2022/09/15 01:02:21;;;;;;;;;;;14.20;99.90;;;;;;5046354;28;19966;-79
2022/09/15 01:04:47;;;;;;;;;;;14.00;99.90;;;;;;5050528;28;19921;-79
2022/09/15 01:07:14;;;;;;;;;;;14.10;99.90;;;;;;5038191;28;19923;-78
2022/09/15 01:09:52;;;;;;;;;;;14.00;99.90;;;;;;5072749;28;19920;-78
2022/09/15 01:12:18;;;;;;;;;;;14.00;99.90;;;;;;5054489;28;20363;-78
2022/09/15 01:14:44;;;;;;;;;;;14.10;99.90;;;;;;5054618;28;20003;-78
2022/09/15 01:17:24;;;;;;;;;;;14.10;99.90;;;;;;5054455;28;20004;-78
2022/09/15 01:20:07;;;;;;;;;;;14.00;99.90;;;;;;5044685;28;20335;-79
2022/09/15 01:22:51;;;;;;;;;;;14.10;99.90;;;;;;5052658;28;20007;-79
2022/09/15 01:25:36;;;;;;;;;;;14.10;99.90;;;;;;5054379;28;19946;-79
2022/09/15 01:28:17;;;;;;;;;;;14.00;99.90;;;;;;5041683;28;19932;-79
2022/09/15 01:30:53;;;;;;;;;;;14.10;99.90;;;;;;5054069;28;19922;-79
2022/09/15 01:33:24;;;;;;;;;;;14.00;99.90;;;;;;5054616;28;19939;-79
2022/09/15 01:36:09;;;;;;;;;;;14.20;99.90;;;;;;5054306;28;20411;-80
2022/09/15 01:38:38;;;;;;;;;;;14.00;99.90;;;;;;5044005;28;20382;-79
2022/09/15 01:41:06;;;;;;;;;;;14.00;99.90;;;;;;5047964;28;19931;-79
2022/09/15 01:43:34;;;;;;;;;;;14.00;99.90;;;;;;5043189;28;20022;-79
2022/09/15 01:46:00;;;;;;;;;;;14.10;99.90;;;;;;5054388;28;20249;-80
2022/09/15 01:48:27;;;;;;;;;;;14.00;99.90;;;;;;5054421;28;19991;-80
2022/09/15 01:50:54;;;;;;;;;;;14.10;99.90;;;;;;5053850;28;19923;-80
2022/09/15 01:53:21;;;;;;;;;;;14.20;99.90;;;;;;5053009;28;19920;-80
2022/09/15 01:55:55;;;;;;;;;;;14.20;99.90;;;;;;5053763;28;19927;-79
2022/09/15 01:58:21;;;;;;;;;;;14.20;99.90;;;;;;5049205;28;20090;-79
2022/09/15 02:00:48;;;;;;;;;;;14.10;99.90;;;;;;5039951;28;20007;-79
2022/09/15 02:03:17;;;;;;;;;;;14.20;99.90;;;;;;5052288;28;19927;-79
2022/09/15 02:05:50;;;;;;;;;;;14.20;99.90;;;;;;5044324;28;20379;-79
2022/09/15 02:08:24;;;;;;;;;;;14.30;99.90;;;;;;5035795;28;20299;-79
2022/09/15 02:10:57;;;;;;;;;;;14.30;99.90;;;;;;5053315;28;19920;-80
2022/09/15 02:13:31;;;;;;;;;;;14.20;99.90;;;;;;5053180;28;19916;-79
2022/09/15 02:15:58;;;;;;;;;;;14.10;99.90;;;;;;5053359;28;19920;-79
2022/09/15 02:18:29;;;;;;;;;;;14.20;99.90;;;;;;5053434;28;19999;-79
2022/09/15 02:20:58;;;;;;;;;;;14.20;99.90;;;;;;5053354;28;19927;-79
2022/09/15 02:23:26;;;;;;;;;;;14.00;99.90;;;;;;5036784;28;19928;-79
2022/09/15 02:25:55;;;;;;;;;;;14.00;99.90;;;;;;5053177;28;19920;-79
2022/09/15 02:28:25;;;;;;;;;;;13.90;99.90;;;;;;5053447;28;19920;-79
2022/09/15 02:30:53;;;;;;;;;;;14.00;99.90;;;;;;5053035;28;19981;-79
2022/09/15 02:33:22;;;;;;;;;;;13.90;99.90;;;;;;5053234;28;19920;-80
2022/09/15 02:35:50;;;;;;;;;;;13.90;99.90;;;;;;5053262;28;19920;-79
2022/09/15 02:38:15;;;;;;;;;;;13.90;99.90;;;;;;5071264;28;19920;-79
2022/09/15 02:40:42;;;;;;;;;;;13.90;99.90;;;;;;5052705;28;19935;-78
2022/09/15 02:43:11;;;;;;;;;;;13.80;99.90;;;;;;5052984;28;19916;-79
2022/09/15 02:45:37;;;;;;;;;;;13.80;99.90;;;;;;5052701;28;19959;-79
2022/09/15 02:48:03;;;;;;;;;;;13.70;99.90;;;;;;5036579;28;19963;-79
2022/09/15 02:50:29;;;;;;;;;;;13.70;99.90;;;;;;5053183;28;19916;-79
2022/09/15 02:52:55;;;;;;;;;;;13.60;99.90;;;;;;5052924;28;20291;-79
2022/09/15 02:55:21;;;;;;;;;;;13.60;99.90;;;;;;5052718;28;19925;-79
2022/09/15 02:57:47;;;;;;;;;;;13.60;99.90;;;;;;5053199;28;19923;-79
2022/09/15 03:00:14;;;;;;;;;;;13.60;99.90;;;;;;5052639;28;20340;-79
2022/09/15 03:02:41;;;;;;;;;;;13.60;99.90;;;;;;5052840;28;19920;-79
2022/09/15 03:05:07;;;;;;;;;;;13.60;99.90;;;;;;5042699;28;19924;-79
2022/09/15 03:07:33;;;;;;;;;;;13.50;99.90;;;;;;5048236;28;19967;-80
2022/09/15 03:09:59;;;;;;;;;;;13.50;99.90;;;;;;5052800;28;19952;-79
2022/09/15 03:12:24;;;;;;;;;;;13.50;99.90;;;;;;5052665;28;19966;-78
2022/09/15 03:14:50;;;;;;;;;;;13.50;99.90;;;;;;5052684;28;19916;-78
2022/09/15 03:17:16;;;;;;;;;;;13.70;99.90;;;;;;5052710;28;19916;-79
2022/09/15 03:19:42;;;;;;;;;;;13.70;99.90;;;;;;5036062;28;19999;-79
2022/09/15 03:22:08;;;;;;;;;;;13.70;99.90;;;;;;5053003;28;20183;-79
2022/09/15 03:24:34;;;;;;;;;;;13.70;99.90;;;;;;5070652;28;20360;-79
2022/09/15 03:26:59;;;;;;;;;;;13.70;99.90;;;;;;5052370;28;19927;-79
2022/09/15 03:29:25;;;;;;;;;;;13.70;99.90;;;;;;5052989;28;19989;-79
2022/09/15 03:31:50;;;;;;;;;;;13.70;99.90;;;;;;5052425;28;20350;-71
2022/09/15 03:34:16;;;;;;;;;;;13.70;99.90;;;;;;5052815;28;19995;-71
2022/09/15 03:36:42;;;;;;;;;;;13.70;99.90;;;;;;5052240;28;19920;-72
2022/09/15 03:39:08;;;;;;;;;;;13.80;99.90;;;;;;5032632;28;19917;-71
2022/09/15 03:41:33;;;;;;;;;;;13.70;99.90;;;;;;5031038;28;20368;-71
2022/09/15 03:43:59;;;;;;;;;;;13.70;99.90;;;;;;5035819;28;19926;-71
2022/09/15 03:46:24;;;;;;;;;;;13.70;99.90;;;;;;5048039;28;19927;-71
2022/09/15 03:48:50;;;;;;;;;;;13.60;99.90;;;;;;5047092;28;19966;-72
2022/09/15 03:51:15;;;;;;;;;;;13.60;99.90;;;;;;5023684;28;19921;-71
2022/09/15 03:53:41;;;;;;;;;;;13.60;99.90;;;;;;5049203;28;19942;-71
2022/09/15 03:56:07;;;;;;;;;;;13.70;99.90;;;;;;5021454;28;19996;-72
2022/09/15 03:58:33;;;;;;;;;;;13.60;99.90;;;;;;5047790;28;20002;-71
2022/09/15 04:00:59;;;;;;;;;;;13.70;99.90;;;;;;5045051;28;20616;-72
2022/09/15 04:03:24;;;;;;;;;;;13.70;99.90;;;;;;5044495;28;20273;-72
2022/09/15 04:05:50;;;;;;;;;;;13.80;99.90;;;;;;5036912;28;19963;-72
2022/09/15 04:08:15;;;;;;;;;;;13.80;99.90;;;;;;5051554;28;19916;-72
2022/09/15 04:10:41;;;;;;;;;;;13.90;99.90;;;;;;5052060;28;19965;-71
2022/09/15 04:13:07;;;;;;;;;;;14.00;99.90;;;;;;5046830;28;20008;-72
2022/09/15 04:15:32;;;;;;;;;;;14.00;99.90;;;;;;5044424;28;19920;-72
2022/09/15 04:17:58;;;;;;;;;;;14.00;99.90;;;;;;5055649;28;20484;-73
2022/09/15 04:20:24;;;;;;;;;;;14.00;99.90;;;;;;5039331;28;19985;-71
2022/09/15 04:22:49;;;;;;;;;;;14.00;99.90;;;;;;5056009;28;20367;-71
2022/09/15 04:25:15;;;;;;;;;;;14.00;99.90;;;;;;5035574;28;20250;-71
2022/09/15 04:27:41;;;;;;;;;;;14.00;99.90;;;;;;5028898;28;19925;-71
2022/09/15 04:30:07;;;;;;;;;;;14.00;99.90;;;;;;5054816;28;19923;-71
2022/09/15 04:32:34;;;;;;;;;;;14.00;99.90;;;;;;5027690;28;20357;-71
2022/09/15 04:35:00;;;;;;;;;;;13.90;99.90;;;;;;5035966;28;19920;-71
2022/09/15 04:37:25;;;;;;;;;;;14.00;99.90;;;;;;5055581;28;19916;-71
2022/09/15 04:39:51;;;;;;;;;;;14.00;99.90;;;;;;5055293;28;20401;-70
2022/09/15 04:42:19;;;;;;;;;;;14.00;99.90;;;;;;5055263;28;19936;-71
2022/09/15 04:44:44;;;;;;;;;;;14.00;99.90;;;;;;5055578;28;20296;-71
2022/09/15 04:47:10;;;;;;;;;;;14.00;99.90;;;;;;5021701;28;19916;-71
2022/09/15 04:49:36;;;;;;;;;;;14.10;99.90;;;;;;5035264;28;20430;-71
2022/09/15 04:52:01;;;;;;;;;;;14.10;99.90;;;;;;5070329;28;19924;-71
2022/09/15 04:54:27;;;;;;;;;;;14.10;99.90;;;;;;5038687;28;19924;-71
2022/09/15 04:56:52;;;;;;;;;;;14.20;99.90;;;;;;5054786;28;20260;-72
2022/09/15 04:59:19;;;;;;;;;;;14.10;99.90;;;;;;5054868;28;19963;-72
2022/09/15 05:01:45;;;;;;;;;;;14.10;99.90;;;;;;5055053;28;20413;-71
2022/09/15 05:04:10;;;;;;;;;;;14.00;99.90;;;;;;5032724;28;19951;-71
2022/09/15 05:06:37;;;;;;;;;;;14.00;99.90;;;;;;5042412;28;19926;-71
2022/09/15 05:09:04;;;;;;;;;;;14.00;99.90;;;;;;5055095;28;19916;-71
2022/09/15 05:11:31;;;;;;;;;;;14.00;99.90;;;;;;5054746;28;20022;-71
2022/09/15 05:13:57;;;;;;;;;;;13.90;99.90;;;;;;5072690;28;20466;-71
2022/09/15 05:16:24;;;;;;;;;;;13.90;99.90;;;;;;5054558;28;19927;-70
2022/09/15 05:18:50;;;;;;;;;;;13.80;99.90;;;;;;5054617;28;19984;-71
2022/09/15 05:21:17;;;;;;;;;;;13.80;99.90;;;;;;5037824;28;19921;-71
2022/09/15 05:23:43;;;;;;;;;;;13.70;99.90;;;;;;5054390;28;19920;-71
2022/09/15 05:26:13;;;;;;;;;;;13.60;99.90;;;;;;5037708;28;19920;-71
2022/09/15 05:28:39;;;;;;;;;;;13.60;99.90;;;;;;5053551;28;19986;-72
2022/09/15 05:31:09;;;;;;;;;;;13.50;99.90;;;;;;5054288;28;19928;-71
2022/09/15 05:33:35;;;;;;;;;;;13.60;99.90;;;;;;5054206;28;20011;-72
2022/09/15 05:36:01;;;;;;;;;;;13.50;99.90;;;;;;5054208;28;19923;-72
2022/09/15 05:38:28;;;;;;;;;;;13.50;99.90;;;;;;5054132;28;20276;-72
2022/09/15 05:40:53;;;;;;;;;;;13.50;99.90;;;;;;5037206;28;20414;-72
2022/09/15 05:43:19;;;;;;;;;;;13.60;99.90;;;;;;5035724;28;19968;-72
2022/09/15 05:45:52;;;;;;;;;;;13.60;99.90;;;;;;5054204;28;19920;-72
2022/09/15 05:48:18;;;;;;;;;;;13.60;99.90;;;;;;5054042;28;19966;-72
2022/09/15 05:50:47;;;;;;;;;;;13.60;99.90;;;;;;5053704;28;19968;-72
2022/09/15 05:53:13;;;;;;;;;;;13.70;99.90;;;;;;5053676;28;20355;-72
2022/09/15 05:55:38;;;;;;;;;;;13.70;99.90;;;;;;5053830;28;19962;-72
2022/09/15 05:58:04;;;;;;;;;;;13.80;99.90;;;;;;5053984;28;19922;-79
2022/09/15 06:00:29;;;;;;;;;;;13.80;99.90;;;;;;5053380;28;20303;-79
2022/09/15 06:02:55;;;;;;;;;;;13.80;99.90;;;;;;5053769;28;20021;-79
2022/09/15 06:05:20;;;;;;;;;;;13.90;99.90;;;;;;5042365;28;19920;-80
2022/09/15 06:07:46;;;;;;;;;;;13.90;99.90;;;;;;5050818;28;20338;-79
2022/09/15 06:10:11;;;;;;;;;;;14.00;99.90;;;;;;5053749;28;20364;-79
2022/09/15 06:12:37;;;;;;;;;;;14.10;99.90;;;;;;5036657;28;20379;-79
2022/09/15 06:15:03;;;;;;;;;;;14.20;99.90;;;;;;5036565;28;19916;-79
2022/09/15 06:17:30;;;;;;;;;;;14.30;99.90;;;;;;5053577;28;19946;-79
2022/09/15 06:19:56;;;;;;;;;;;14.30;99.90;;;;;;5039121;28;20281;-79
2022/09/15 06:22:23;;;;;;;;;;;14.30;99.90;;;;;;5053664;28;19916;-80
2022/09/15 06:24:48;;;;;;;;;;;14.40;99.90;;;;;;5053542;28;20256;-80
2022/09/15 06:27:14;;;;;;;;;;;14.40;99.90;;;;;;5053072;28;19924;-79
2022/09/15 06:29:39;;;;;;;;;;;14.40;99.90;;;;;;5053057;28;19920;-79
2022/09/15 06:32:05;;;;;;;;;;;14.40;99.90;;;;;;5036430;28;20038;-79
2022/09/15 06:34:34;;;;;;;;;;;14.50;99.90;;;;;;5036360;28;20403;-79
2022/09/15 06:36:59;;;;;;;;;;;14.50;99.90;;;;;;5053532;28;20362;-79
2022/09/15 06:39:25;;;;;;;;;;;14.60;99.90;;;;;;5052923;28;20354;-79
2022/09/15 06:41:51;;;;;;;;;;;14.70;99.90;;;;;;5036064;28;20019;-79
2022/09/15 06:44:17;;;;;;;;;;;14.70;99.90;;;;;;5036470;28;19923;-79
2022/09/15 06:46:43;;;;;;;;;;;14.80;99.90;;;;;;5052703;28;19916;-78
2022/09/15 06:49:09;;;;;;;;;;;14.80;99.90;;;;;;5053212;28;19946;-79
2022/09/15 06:51:35;;;;;;;;;;;14.80;99.90;;;;;;5036478;28;19925;-79
2022/09/15 06:54:01;;;;;;;;;;;14.80;99.90;;;;;;5052828;28;20334;-79
2022/09/15 06:56:28;;;;;;;;;;;14.80;99.90;;;;;;5052900;28;19970;-80
2022/09/15 06:58:54;;;;;;;;;;;14.80;99.90;;;;;;5049351;28;19924;-79
2022/09/15 07:01:20;;;;;;;;;;;14.80;99.90;;;;;;5042935;28;19935;-79
2022/09/15 07:03:46;;;;;;;;;;;14.80;99.90;;;;;;5052816;28;20274;-79
2022/09/15 07:06:12;;;;;;;;;;;14.80;99.90;;;;;;5052533;28;19924;-78
2022/09/15 07:08:38;;;;;;;;;;;14.80;99.90;;;;;;5042831;28;19925;-79
2022/09/15 07:11:04;;;;;;;;;;;14.90;99.90;;;;;;5031167;28;19924;-79
2022/09/15 07:13:30;;;;;;;;;;;14.90;99.90;;;;;;5053127;28;20011;-78
2022/09/15 07:15:56;;;;;;;;;;;15.00;99.90;;;;;;5070929;28;19954;-78
2022/09/15 07:18:23;;;;;;;;;;;15.10;99.90;;;;;;5070978;28;19927;-79
2022/09/15 07:20:49;;;;;;;;;;;15.20;99.90;;;;;;5052984;28;19920;-79
2022/09/15 07:23:14;;;;;;;;;;;15.40;99.90;;;;;;5052593;28;19924;-78
2022/09/15 07:25:42;;;;;;;;;;;15.50;99.90;;;;;;5042446;28;19927;-78
2022/09/15 07:28:09;;;;;;;;;;;15.50;99.90;;;;;;5067478;28;19924;-78
2022/09/15 07:30:34;;;;;;;;;;;15.40;99.90;;;;;;5052543;28;20002;-77
2022/09/15 07:33:00;;;;;;;;;;;15.40;99.90;;;;;;5052894;28;20058;-79
2022/09/15 07:35:25;;;;;;;;;;;15.40;99.90;;;;;;5052740;28;19921;-78
2022/09/15 07:37:51;;;;;;;;;;;15.50;99.90;;;;;;5019703;28;19936;-78
2022/09/15 07:40:17;;;;;;;;;;;15.50;99.90;;;;;;5047464;28;20402;-78
2022/09/15 07:42:43;;;;;;;;;;;15.50;99.90;;;;;;5043214;28;19916;-78
2022/09/15 07:45:12;;;;;;;;;;;15.50;99.90;;;;;;5035424;28;19967;-77
2022/09/15 07:47:37;;;;;;;;;;;15.40;99.90;;;;;;5052322;28;20321;-78
2022/09/15 07:50:05;;;;;;;;;;;15.20;99.90;;;;;;5052464;28;20383;-78
2022/09/15 07:52:31;;;;;;;;;;;15.10;99.90;;;;;;5056228;28;19994;-78
2022/09/15 07:54:56;;;;;;;;;;;14.90;99.90;;;;;;5073981;28;19924;-78
2022/09/15 07:57:22;;;;;;;;;;;14.70;99.90;;;;;;5039352;28;19916;-78
2022/09/15 07:59:47;;;;;;;;;;;14.50;99.90;;;;;;5056244;28;19920;-78
2022/09/15 08:02:17;;;;;;;;;;;14.60;99.90;;;;;;5055853;28;19995;-79
2022/09/15 08:04:43;;;;;;;;;;;14.60;99.90;;;;;;5032344;28;20311;-78
2022/09/15 08:07:09;;;;;;;;;;;14.70;99.90;;;;;;5065945;28;19936;-78
2022/09/15 08:09:35;;;;;;;;;;;14.80;99.90;;;;;;5041836;28;20335;-78
2022/09/15 08:12:01;;;;;;;;;;;14.90;99.90;;;;;;5039181;28;19978;-79
2022/09/15 08:14:27;;;;;;;;;;;15.10;99.90;;;;;;5039358;28;19920;-78
2022/09/15 08:16:52;;;;;;;;;;;15.20;99.90;;;;;;5055811;28;19925;-79
2022/09/15 08:19:19;;;;;;;;;;;15.40;99.90;;;;;;5039115;28;19916;-80
2022/09/15 08:21:45;;;;;;;;;;;15.60;99.90;;;;;;5039240;28;20295;-78
2022/09/15 08:24:11;;;;;;;;;;;15.60;99.90;;;;;;5055549;28;19920;-79
2022/09/15 08:26:37;;;;;;;;;;;15.80;99.90;;;;;;5039333;28;20011;-79
2022/09/15 08:29:03;;;;;;;;;;;15.80;99.90;;;;;;5055769;28;19916;-78
2022/09/15 08:31:28;;;;;;;;;;;15.90;99.90;;;;;;5059426;28;19932;-79
2022/09/15 08:33:54;;;;;;;;;;;15.90;99.90;;;;;;5055780;28;20253;-79
2022/09/15 08:36:20;;;;;;;;;;;16.00;99.90;;;;;;5055443;28;19916;-78
2022/09/15 08:38:46;;;;;;;;;;;16.00;99.90;;;;;;5041840;28;20275;-79
2022/09/15 08:41:30;;;;;;;;;;;16.10;99.90;;;;;;5055221;28;19928;-78
2022/09/15 08:44:02;;;;;;;;;;;16.10;99.90;;;;;;5055683;28;19920;-79
2022/09/15 08:46:33;;;;;;;;;;;16.20;99.90;;;;;;5055684;28;19916;-79
2022/09/15 08:49:10;;;;;;;;;;;16.20;99.90;;;;;;5041755;28;19951;-79
2022/09/15 08:51:45;;;;;;;;;;;16.20;99.90;;;;;;5055016;28;19924;-79
2022/09/15 08:54:15;;;;;;;;;;;16.30;99.90;;;;;;5055245;28;19927;-79
2022/09/15 08:56:42;;;;;;;;;;;16.30;99.90;;;;;;5055092;28;19927;-78
2022/09/15 08:59:15;;;;;;;;;;;16.30;99.90;;;;;;5073468;28;19923;-78
2022/09/15 09:01:41;;;;;;;;;;;16.30;99.90;;;;;;5054617;28;19963;-80
2022/09/15 09:04:18;;;;;;;;;;;15.90;99.90;;;;;;5054723;28;20398;-79
2022/09/15 09:07:12;;;;;;;;;;;15.50;99.90;;;;;;5055019;28;20321;-79
2022/09/15 09:09:44;;;;;;;;;;;15.10;99.90;;;;;;5055127;28;19920;-79
2022/09/15 09:12:19;;;;;;;;;;;14.80;99.90;;;;;;5054682;28;20150;-79
2022/09/15 09:14:44;;;;;;;;;;;14.70;99.90;;;;;;5054851;28;20445;-78
2022/09/15 09:17:19;;;;;;;;;;;14.60;99.90;;;;;;5054805;28;19920;-79
2022/09/15 09:20:04;;;;;;;;;;;14.70;99.90;;;;;;5054889;28;19977;-79
2022/09/15 09:22:32;;;;;;;;;;;14.90;99.90;;;;;;5037857;28;19922;-80
2022/09/15 09:24:58;;;;;;;;;;;15.10;99.90;;;;;;5054205;28;20370;-79
2022/09/15 09:27:27;;;;;;;;;;;15.10;99.90;;;;;;5054330;28;20007;-79
2022/09/15 09:30:06;;;;;;;;;;;15.20;99.90;;;;;;5054524;28;19924;-78
2022/09/15 09:32:43;;;;;;;;;;;15.30;99.90;;;;;;5054351;28;19920;-77
2022/09/15 09:35:28;;;;;;;;;;;15.30;99.90;;;;;;5072251;28;19916;-78
2022/09/15 09:37:54;;;;;;;;;;;15.30;99.90;;;;;;5054364;28;19917;-79
2022/09/15 09:40:20;;;;;;;;;;;15.10;99.90;;;;;;5053944;28;19931;-79
2022/09/15 09:42:45;;;;;;;;;;;14.50;99.90;;;;;;5054165;28;19920;-77
2022/09/15 09:45:15;;;;;;;;;;;14.20;99.90;;;;;;5054055;28;19924;-78
2022/09/15 09:47:41;;;;;;;;;;;14.20;99.90;;;;;;5054372;28;20007;-78
2022/09/15 09:50:27;;;;;;;;;;;14.20;99.90;;;;;;5041379;28;19995;-78
2022/09/15 09:52:52;;;;;;;;;;;14.30;99.90;;;;;;5043853;28;19924;-78
2022/09/15 09:55:18;;;;;;;;;;;14.30;99.90;;;;;;5034845;28;20438;-78
2022/09/15 09:57:43;;;;;;;;;;;14.40;99.90;;;;;;5044163;28;20279;-78
2022/09/15 10:00:28;;;;;;;;;;;14.50;99.90;;;;;;5060958;28;20304;-79
2022/09/15 10:02:53;;;;;;;;;;;14.50;99.90;;;;;;5056948;28;19916;-79
2022/09/15 10:05:19;;;;;;;;;;;14.80;99.90;;;;;;5038479;28;19926;-78
2022/09/15 10:07:45;;;;;;;;;;;15.10;99.90;;;;;;5033342;28;19966;-79
2022/09/15 10:10:19;;;;;;;;;;;15.40;99.90;;;;;;5054197;28;20659;-79
2022/09/15 10:12:45;;;;;;;;;;;15.70;99.90;;;;;;5053413;28;20001;-78
2022/09/15 10:15:22;;;;;;;;;;;15.70;99.90;;;;;;5053435;28;20414;-79
2022/09/15 10:17:48;;;;;;;;;;;15.80;99.90;;;;;;5053627;28;20405;-79
2022/09/15 10:20:31;;;;;;;;;;;15.90;99.90;;;;;;5045960;28;20362;-79
2022/09/15 10:23:06;;;;;;;;;;;16.10;99.90;;;;;;5067603;28;19916;-78
2022/09/15 10:25:33;;;;;;;;;;;16.20;99.90;;;;;;5052020;28;19960;-79
2022/09/15 10:28:01;;;;;;;;;;;16.10;99.90;;;;;;5036740;28;19920;-78
2022/09/15 10:30:27;;;;;;;;;;;15.90;99.90;;;;;;5045642;28;20394;-79
2022/09/15 10:32:52;;;;;;;;;;;15.50;99.90;;;;;;5046876;28;19924;-79
2022/09/15 10:35:19;;;;;;;;;;;15.20;99.90;;;;;;5036449;28;20383;-79
2022/09/15 10:38:23;;;;;;;;;;;15.10;99.90;;;;;;5071249;28;20380;-78
2022/09/15 10:40:55;;;;;;;;;;;15.10;99.90;;;;;;4969881;28;19938;-78
2022/09/15 10:43:31;;;;;;;;;;;15.20;99.90;;;;;;4953858;28;20004;-78
2022/09/15 10:45:59;;;;;;;;;;;15.20;99.90;;;;;;5008513;28;20011;-79
2022/09/15 10:48:44;;;;;;;;;;;15.30;99.90;;;;;;5052911;28;19920;-77
2022/09/15 10:51:14;;;;;;;;;;;15.30;99.90;;;;;;5052793;28;20010;-79
2022/09/15 10:54:03;;;;;;;;;;;15.20;99.90;;;;;;5052940;28;20058;-79
2022/09/15 10:56:35;;;;;;;;;;;15.30;99.90;;;;;;5007067;28;20375;-78
2022/09/15 10:59:02;;;;;;;;;;;15.30;99.90;;;;;;5052900;28;19920;-78
2022/09/15 11:01:27;;;;;;;;;;;15.30;99.90;;;;;;5053037;28;19916;-77
2022/09/15 11:04:01;;;;;;;;;;;15.40;99.90;;;;;;5052674;28;20264;-78
2022/09/15 11:06:30;;;;;;;;;;;15.50;99.90;;;;;;5038841;28;19960;-77
2022/09/15 11:08:56;;;;;;;;;;;15.60;99.90;;;;;;5070842;28;20391;-78
2022/09/15 11:11:21;;;;;;;;;;;15.80;99.90;;;;;;5036281;28;19920;-78
2022/09/15 11:13:54;;;;;;;;;;;15.80;99.90;;;;;;5036551;28;19916;-78
2022/09/15 11:16:23;;;;;;;;;;;15.90;99.90;;;;;;5052589;28;19927;-79
2022/09/15 11:19:07;;;;;;;;;;;16.00;99.90;;;;;;5052727;28;20395;-78
2022/09/15 11:21:37;;;;;;;;;;;16.10;99.90;;;;;;5052677;28;19924;-78
2022/09/15 11:24:13;;;;;;;;;;;16.10;99.90;;;;;;5035795;28;19927;-78
2022/09/15 11:26:48;;;;;;;;;;;16.30;99.90;;;;;;5025143;28;19916;-78
2022/09/15 11:29:38;;;;;;;;;;;16.40;99.90;;;;;;5057007;28;19931;-78
2022/09/15 11:32:08;;;;;;;;;;;16.70;99.90;;;;;;5053218;28;19931;-79
2022/09/15 11:34:45;;;;;;;;;;;16.70;99.90;;;;;;5056722;28;19927;-78
2022/09/15 11:37:23;;;;;;;;;;;16.70;99.90;;;;;;5036625;28;20321;-78
2022/09/15 11:40:00;;;;;;;;;;;16.70;99.90;;;;;;5069240;28;19916;-78
2022/09/15 11:42:30;;;;;;;;;;;16.70;99.90;;;;;;5056548;28;19966;-78
2022/09/15 11:44:57;;;;;;;;;;;17.00;99.90;;;;;;5038810;28;20309;-79
2022/09/15 11:47:27;;;;;;;;;;;17.30;99.90;;;;;;5061692;28;19920;-79
2022/09/15 11:50:11;;;;;;;;;;;17.40;99.90;;;;;;5056280;28;19920;-78
2022/09/15 11:52:49;;;;;;;;;;;17.30;99.90;;;;;;5056240;28;19997;-78
2022/09/15 11:55:15;;;;;;;;;;;17.40;99.90;;;;;;5056121;28;19920;-78
2022/09/15 11:57:47;;;;;;;;;;;17.70;99.90;;;;;;5056138;28;19935;-78
2022/09/15 12:00:14;;;;;;;;;;;17.80;99.90;;;;;;5025420;28;20414;-79
2022/09/15 12:02:39;;;;;;;;;;;17.60;99.90;;;;;;5056141;28;20401;-78
2022/09/15 12:05:05;;;;;;;;;;;17.40;99.90;;;;;;5056174;28;19921;-78
2022/09/15 12:07:34;;;;;;;;;;;17.40;99.90;;;;;;5056020;28;19916;-78
2022/09/15 12:10:20;;;;;;;;;;;17.30;99.90;;;;;;5056129;28;19920;-78
2022/09/15 12:12:46;;;;;;;;;;;17.40;99.90;;;;;;5055997;28;20375;-78
2022/09/15 12:15:25;;;;;;;;;;;17.70;99.90;;;;;;5039739;28;20031;-78
2022/09/15 12:18:00;;;;;;;;;;;17.80;99.90;;;;;;5056480;28;19916;-78
2022/09/15 12:20:33;;;;;;;;;;;18.00;99.90;;;;;;5074007;28;20326;-78
2022/09/15 12:23:08;;;;;;;;;;;18.00;99.60;;;;;;5074275;28;19966;-78
2022/09/15 12:25:39;;;;;;;;;;;18.40;99.90;;;;;;5056996;28;19983;-79
2022/09/15 12:28:31;;;;;;;;;;;18.40;99.10;;;;;;5056967;28;20269;-79
2022/09/15 12:31:23;;;;;;;;;;;18.30;99.80;;;;;;5022446;28;19920;-78
2022/09/15 12:33:53;;;;;;;;;;;18.10;99.90;;;;;;5043078;28;19925;-78
2022/09/15 12:36:37;;;;;;;;;;;17.80;99.90;;;;;;5055366;28;20402;-79
2022/09/15 12:39:15;;;;;;;;;;;17.60;99.90;;;;;;5055512;28;19939;-78
2022/09/15 12:41:45;;;;;;;;;;;17.40;99.90;;;;;;5055202;28;19920;-78
2022/09/15 12:44:17;;;;;;;;;;;17.10;99.90;;;;;;5055627;28;19928;-78
2022/09/15 12:46:49;;;;;;;;;;;17.10;99.90;;;;;;5073201;28;19927;-78
2022/09/15 12:49:16;;;;;;;;;;;17.40;99.90;;;;;;5046813;28;19917;-78
2022/09/15 12:51:46;;;;;;;;;;;17.80;99.90;;;;;;5049740;28;19981;-78
2022/09/15 12:54:17;;;;;;;;;;;18.20;99.90;;;;;;5055188;28;19916;-78
2022/09/15 12:56:49;;;;;;;;;;;18.30;99.50;;;;;;5055061;28;20385;-78
2022/09/15 12:59:14;;;;;;;;;;;18.40;99.40;;;;;;5038518;28;20402;-78
2022/09/15 13:01:47;;;;;;;;;;;18.30;99.90;;;;;;5055108;28;19920;-78
2022/09/15 13:04:23;;;;;;;;;;;18.10;99.90;;;;;;5055279;28;19920;-79
2022/09/15 13:07:07;;;;;;;;;;;17.90;99.10;;;;;;5054820;28;19927;-78
2022/09/15 13:09:42;;;;;;;;;;;17.60;99.30;;;;;;5055153;28;19943;-78
2022/09/15 13:12:08;;;;;;;;;;;17.60;99.70;;;;;;5054744;28;19920;-78
2022/09/15 13:14:43;;;;;;;;;;;17.40;99.50;;;;;;5054871;28;19921;-79
2022/09/15 13:17:20;;;;;;;;;;;17.30;99.50;;;;;;5054976;28;19928;-78
2022/09/15 13:19:47;;;;;;;;;;;17.30;98.70;;;;;;5054729;28;19916;-78
2022/09/15 13:22:13;;;;;;;;;;;17.30;99.40;;;;;;5054654;28;19927;-78
2022/09/15 13:24:58;;;;;;;;;;;17.30;99.80;;;;;;5036340;28;19920;-78
2022/09/15 13:27:43;;;;;;;;;;;17.30;99.90;;;;;;5025389;28;20375;-79
2022/09/15 13:30:28;;;;;;;;;;;17.40;99.90;;;;;;5054073;28;19920;-78
2022/09/15 13:33:04;;;;;;;;;;;16.90;99.90;;;;;;5054643;28;19924;-78
2022/09/15 13:35:36;;;;;;;;;;;16.80;99.90;;;;;;5054737;28;20027;-78
2022/09/15 13:38:22;;;;;;;;;;;16.60;99.90;;;;;;5054531;28;19942;-78
2022/09/15 13:40:47;;;;;;;;;;;16.60;99.90;;;;;;5045316;28;19924;-78
2022/09/15 13:43:32;;;;;;;;;;;16.70;99.90;;;;;;5049491;28;19920;-77
2022/09/15 13:46:02;;;;;;;;;;;16.60;99.90;;;;;;5054100;28;19916;-77
2022/09/15 13:48:31;;;;;;;;;;;16.60;99.90;;;;;;5036793;28;20004;-78
2022/09/15 13:50:58;;;;;;;;;;;16.60;99.90;;;;;;5045909;28;19983;-78
2022/09/15 13:53:41;;;;;;;;;;;16.50;99.90;;;;;;5049167;28;20318;-78
2022/09/15 13:56:10;;;;;;;;;;;16.70;99.90;;;;;;5044775;28;20368;-78
2022/09/15 13:58:39;;;;;;;;;;;16.50;99.90;;;;;;5032742;28;20367;-78
2022/09/15 14:01:05;;;;;;;;;;;16.70;99.90;;;;;;5053922;28;20359;-78
2022/09/15 14:03:52;;;;;;;;;;;16.60;99.90;;;;;;5054410;28;19920;-78
2022/09/15 14:06:17;;;;;;;;;;;16.30;99.90;;;;;;5052694;28;19975;-78
2022/09/15 14:08:46;;;;;;;;;;;16.20;99.90;;;;;;5053977;28;20007;-78
2022/09/15 14:11:13;;;;;;;;;;;16.00;99.90;;;;;;5050634;28;19924;-78
2022/09/15 14:13:43;;;;;;;;;;;15.80;99.90;;;;;;5043411;28;20338;-78
2022/09/15 14:16:29;;;;;;;;;;;15.80;99.90;;;;;;5036966;28;20355;-78
2022/09/15 14:18:57;;;;;;;;;;;15.80;99.90;;;;;;5053902;28;19983;-78
2022/09/15 14:21:24;;;;;;;;;;;15.70;99.90;;;;;;5053651;28;19920;-78
2022/09/15 14:23:51;;;;;;;;;;;15.80;99.90;;;;;;5053674;28;19931;-80
2022/09/15 14:26:22;;;;;;;;;;;15.70;99.90;;;;;;5053471;28;19916;-79
2022/09/15 14:28:52;;;;;;;;;;;15.70;99.90;;;;;;5071612;28;19970;-78